sensor_id;sensor_type;location;lat;lon;timestamp;temperature;humidity
3778;DHT22;1904;50.076;8.660;2023-05-29T00:03:03;15.00;1.00
3778;DHT22;1904;50.076;8.660;2023-05-29T00:05:30;15.00;1.00
3778;DHT22;1904;50.076;8.660;2023-05-29T00:07:55;15.00;1.00
3778;DHT22;1904;50.076;8.660;2023-05-29T00:10:21;14.90;1.00
3778;DHT22;1904;50.076;8.660;2023-05-29T00:12:55;14.90;1.00
3778;DHT22;1904;50.076;8.660;2023-05-29T00:15:21;14.90;1.00
3778;DHT22;1904;50.076;8.660;2023-05-29T00:17:55;14.90;1.00
3778;DHT22;1904;50.076;8.660;2023-05-29T00:20:37;14.90;1.00
3778;DHT22;1904;50.076;8.660;2023-05-29T00:28:45;14.80;1.00
3778;DHT22;1904;50.076;8.660;2023-05-29T00:31:13;14.80;1.00
3778;DHT22;1904;50.076;8.660;2023-05-29T00:39:43;14.70;1.00
3778;DHT22;1904;50.076;8.660;2023-05-29T00:42:09;14.70;1.00
3778;DHT22;1904;50.076;8.660;2023-05-29T00:44:49;14.60;1.00
3778;DHT22;1904;50.076;8.660;2023-05-29T00:47:19;14.60;1.00
3778;DHT22;1904;50.076;8.660;2023-05-29T00:49:45;14.60;1.00
3778;DHT22;1904;50.076;8.660;2023-05-29T00:52:11;14.50;1.00
3778;DHT22;1904;50.076;8.660;2023-05-29T00:54:49;14.50;1.00
3778;DHT22;1904;50.076;8.660;2023-05-29T01:00:25;14.40;1.00
3778;DHT22;1904;50.076;8.660;2023-05-29T01:02:51;14.40;1.00
3778;DHT22;1904;50.076;8.660;2023-05-29T01:05:17;14.30;1.00
3778;DHT22;1904;50.076;8.660;2023-05-29T01:07:44;14.20;1.00
3778;DHT22;1904;50.076;8.660;2023-05-29T01:10:13;14.20;1.00
3778;DHT22;1904;50.076;8.660;2023-05-29T01:20:43;14.00;1.00
3778;DHT22;1904;50.076;8.660;2023-05-29T01:23:25;13.90;1.00
3778;DHT22;1904;50.076;8.660;2023-05-29T01:28:45;13.80;1.00
3778;DHT22;1904;50.076;8.660;2023-05-29T01:31:12;13.70;1.00
3778;DHT22;1904;50.076;8.660;2023-05-29T01:33:52;13.70;1.00
3778;DHT22;1904;50.076;8.660;2023-05-29T01:36:18;13.70;1.00
3778;DHT22;1904;50.076;8.660;2023-05-29T01:38:44;13.60;1.00
3778;DHT22;1904;50.076;8.660;2023-05-29T01:47:15;13.60;1.00
3778;DHT22;1904;50.076;8.660;2023-05-29T02:01:33;13.40;1.00
3778;DHT22;1904;50.076;8.660;2023-05-29T02:03:58;13.40;1.00
3778;DHT22;1904;50.076;8.660;2023-05-29T02:06:24;13.40;1.00
3778;DHT22;1904;50.076;8.660;2023-05-29T02:08:55;13.40;1.00
3778;DHT22;1904;50.076;8.660;2023-05-29T02:11:21;13.40;1.00
3778;DHT22;1904;50.076;8.660;2023-05-29T02:13:47;13.40;1.00
3778;DHT22;1904;50.076;8.660;2023-05-29T02:16:12;13.30;1.00
3778;DHT22;1904;50.076;8.660;2023-05-29T02:18:43;13.40;1.00
3778;DHT22;1904;50.076;8.660;2023-05-29T02:21:25;13.40;1.00
3778;DHT22;1904;50.076;8.660;2023-05-29T02:23:51;13.40;1.00
3778;DHT22;1904;50.076;8.660;2023-05-29T02:26:17;13.40;1.00
3778;DHT22;1904;50.076;8.660;2023-05-29T02:31:45;13.40;1.00
3778;DHT22;1904;50.076;8.660;2023-05-29T02:34:10;13.50;1.00
3778;DHT22;1904;50.076;8.660;2023-05-29T02:36:36;13.50;1.00
3778;DHT22;1904;50.076;8.660;2023-05-29T02:39:03;13.50;1.00
3778;DHT22;1904;50.076;8.660;2023-05-29T02:41:29;13.50;1.00
3778;DHT22;1904;50.076;8.660;2023-05-29T02:43:55;13.50;1.00
3778;DHT22;1904;50.076;8.660;2023-05-29T02:46:20;13.60;1.00
3778;DHT22;1904;50.076;8.660;2023-05-29T02:48:47;13.60;1.00
3778;DHT22;1904;50.076;8.660;2023-05-29T02:51:13;13.70;1.00
3778;DHT22;1904;50.076;8.660;2023-05-29T02:53:38;13.80;1.00
3778;DHT22;1904;50.076;8.660;2023-05-29T02:56:05;13.80;1.00
3778;DHT22;1904;50.076;8.660;2023-05-29T02:58:50;13.80;1.00
3778;DHT22;1904;50.076;8.660;2023-05-29T03:01:20;13.90;1.00
3778;DHT22;1904;50.076;8.660;2023-05-29T03:03:50;14.00;1.00
3778;DHT22;1904;50.076;8.660;2023-05-29T03:06:20;14.00;1.00
3778;DHT22;1904;50.076;8.660;2023-05-29T03:08:45;14.10;1.00
3778;DHT22;1904;50.076;8.660;2023-05-29T03:11:12;14.10;1.00
3778;DHT22;1904;50.076;8.660;2023-05-29T03:13:38;14.20;1.00
3778;DHT22;1904;50.076;8.660;2023-05-29T03:16:04;14.20;1.00
3778;DHT22;1904;50.076;8.660;2023-05-29T03:25:49;14.30;1.00
3778;DHT22;1904;50.076;8.660;2023-05-29T03:31:44;14.40;1.00
3778;DHT22;1904;50.076;8.660;2023-05-29T03:34:14;14.40;1.00
3778;DHT22;1904;50.076;8.660;2023-05-29T03:36:40;14.40;1.00
3778;DHT22;1904;50.076;8.660;2023-05-29T03:39:14;14.40;1.00
3778;DHT22;1904;50.076;8.660;2023-05-29T03:41:44;14.40;1.00
3778;DHT22;1904;50.076;8.660;2023-05-29T03:44:20;14.40;1.00
3778;DHT22;1904;50.076;8.660;2023-05-29T03:46:51;14.40;1.00
3778;DHT22;1904;50.076;8.660;2023-05-29T03:49:20;14.40;1.00
3778;DHT22;1904;50.076;8.660;2023-05-29T03:52:19;14.40;1.00
3778;DHT22;1904;50.076;8.660;2023-05-29T03:58:25;14.50;1.00
3778;DHT22;1904;50.076;8.660;2023-05-29T04:00:51;14.40;1.00
3778;DHT22;1904;50.076;8.660;2023-05-29T04:03:17;14.40;1.00
3778;DHT22;1904;50.076;8.660;2023-05-29T04:05:50;14.40;1.00
3778;DHT22;1904;50.076;8.660;2023-05-29T04:08:20;14.40;1.00
3778;DHT22;1904;50.076;8.660;2023-05-29T04:10:50;14.50;1.00
3778;DHT22;1904;50.076;8.660;2023-05-29T04:13:20;14.60;1.00
3778;DHT22;1904;50.076;8.660;2023-05-29T04:15:56;14.60;1.00
3778;DHT22;1904;50.076;8.660;2023-05-29T04:18:49;14.60;1.00
3778;DHT22;1904;50.076;8.660;2023-05-29T04:25:07;14.70;1.00
3778;DHT22;1904;50.076;8.660;2023-05-29T04:31:19;14.70;1.00
3778;DHT22;1904;50.076;8.660;2023-05-29T04:33:50;14.70;1.00
3778;DHT22;1904;50.076;8.660;2023-05-29T04:40:01;14.80;1.00
3778;DHT22;1904;50.076;8.660;2023-05-29T04:43:02;14.80;1.00
3778;DHT22;1904;50.076;8.660;2023-05-29T04:49:19;14.90;1.00
3778;DHT22;1904;50.076;8.660;2023-05-29T04:52:07;14.90;1.00
3778;DHT22;1904;50.076;8.660;2023-05-29T04:54:44;14.90;1.00
3778;DHT22;1904;50.076;8.660;2023-05-29T04:57:26;15.00;1.00
3778;DHT22;1904;50.076;8.660;2023-05-29T05:00:25;15.00;1.00
3778;DHT22;1904;50.076;8.660;2023-05-29T05:02:56;15.00;1.00
3778;DHT22;1904;50.076;8.660;2023-05-29T05:05:21;15.10;1.00
3778;DHT22;1904;50.076;8.660;2023-05-29T05:07:47;15.10;1.00
3778;DHT22;1904;50.076;8.660;2023-05-29T05:10:20;15.20;1.00
3778;DHT22;1904;50.076;8.660;2023-05-29T05:12:46;15.20;1.00
3778;DHT22;1904;50.076;8.660;2023-05-29T05:18:15;15.30;1.00
3778;DHT22;1904;50.076;8.660;2023-05-29T05:20:41;15.40;1.00
3778;DHT22;1904;50.076;8.660;2023-05-29T05:26:32;15.50;1.00
3778;DHT22;1904;50.076;8.660;2023-05-29T05:32:21;15.60;1.00
3778;DHT22;1904;50.076;8.660;2023-05-29T05:34:50;15.60;1.00
3778;DHT22;1904;50.076;8.660;2023-05-29T05:37:20;15.70;1.00
3778;DHT22;1904;50.076;8.660;2023-05-29T05:40:19;15.80;1.00
3778;DHT22;1904;50.076;8.660;2023-05-29T05:46:08;15.90;1.00
3778;DHT22;1904;50.076;8.660;2023-05-29T05:48:50;16.00;1.00
3778;DHT22;1904;50.076;8.660;2023-05-29T05:51:49;16.10;1.00
3778;DHT22;1904;50.076;8.660;2023-05-29T05:54:20;16.10;1.00
3778;DHT22;1904;50.076;8.660;2023-05-29T05:56:50;16.20;1.00
3778;DHT22;1904;50.076;8.660;2023-05-29T05:59:49;16.30;1.00
3778;DHT22;1904;50.076;8.660;2023-05-29T06:05:56;16.40;1.00
3778;DHT22;1904;50.076;8.660;2023-05-29T06:12:19;16.60;1.00
3778;DHT22;1904;50.076;8.660;2023-05-29T06:15:19;16.70;1.00
3778;DHT22;1904;50.076;8.660;2023-05-29T06:24:49;17.00;1.00
3778;DHT22;1904;50.076;8.660;2023-05-29T06:27:49;17.10;1.00
3778;DHT22;1904;50.076;8.660;2023-05-29T06:30:26;17.20;1.00
3778;DHT22;1904;50.076;8.660;2023-05-29T06:32:56;17.40;1.00
3778;DHT22;1904;50.076;8.660;2023-05-29T06:35:22;17.50;1.00
3778;DHT22;1904;50.076;8.660;2023-05-29T06:37:47;17.60;1.00
3778;DHT22;1904;50.076;8.660;2023-05-29T06:40:20;17.70;1.00
3778;DHT22;1904;50.076;8.660;2023-05-29T06:42:50;17.90;1.00
3778;DHT22;1904;50.076;8.660;2023-05-29T06:45:16;18.00;1.00
3778;DHT22;1904;50.076;8.660;2023-05-29T06:47:50;18.20;1.00
3778;DHT22;1904;50.076;8.660;2023-05-29T06:50:37;18.30;1.00
3778;DHT22;1904;50.076;8.660;2023-05-29T06:53:20;18.50;1.00
3778;DHT22;1904;50.076;8.660;2023-05-29T06:56:02;18.60;1.00
3778;DHT22;1904;50.076;8.660;2023-05-29T07:02:19;18.80;1.00
3778;DHT22;1904;50.076;8.660;2023-05-29T07:08:19;19.00;1.00
3778;DHT22;1904;50.076;8.660;2023-05-29T07:10:50;19.10;1.00
3778;DHT22;1904;50.076;8.660;2023-05-29T07:13:20;19.10;1.00
3778;DHT22;1904;50.076;8.660;2023-05-29T07:16:19;19.20;1.00
3778;DHT22;1904;50.076;8.660;2023-05-29T07:18:46;19.30;1.00
3778;DHT22;1904;50.076;8.660;2023-05-29T07:21:26;19.50;1.00
3778;DHT22;1904;50.076;8.660;2023-05-29T07:24:26;19.60;1.00
3778;DHT22;1904;50.076;8.660;2023-05-29T07:27:08;19.80;1.00
3778;DHT22;1904;50.076;8.660;2023-05-29T07:32:44;19.90;1.00
3778;DHT22;1904;50.076;8.660;2023-05-29T07:35:11;20.00;1.00
3778;DHT22;1904;50.076;8.660;2023-05-29T07:37:55;20.10;1.00
3778;DHT22;1904;50.076;8.660;2023-05-29T07:40:21;20.20;1.00
3778;DHT22;1904;50.076;8.660;2023-05-29T07:43:19;20.20;1.00
3778;DHT22;1904;50.076;8.660;2023-05-29T07:46:19;20.30;1.00
3778;DHT22;1904;50.076;8.660;2023-05-29T07:52:25;20.40;1.00
3778;DHT22;1904;50.076;8.660;2023-05-29T07:54:56;20.50;1.00
3778;DHT22;1904;50.076;8.660;2023-05-29T07:57:32;20.60;1.00
3778;DHT22;1904;50.076;8.660;2023-05-29T08:00:02;20.70;1.00
3778;DHT22;1904;50.076;8.660;2023-05-29T08:05:44;20.90;1.00
3778;DHT22;1904;50.076;8.660;2023-05-29T08:08:32;21.00;1.00
3778;DHT22;1904;50.076;8.660;2023-05-29T08:14:19;21.20;1.00
3778;DHT22;1904;50.076;8.660;2023-05-29T08:20:38;21.50;1.00
3778;DHT22;1904;50.076;8.660;2023-05-29T08:23:04;21.60;1.00
3778;DHT22;1904;50.076;8.660;2023-05-29T08:25:29;21.70;1.00
3778;DHT22;1904;50.076;8.660;2023-05-29T08:27:55;21.70;1.00
3778;DHT22;1904;50.076;8.660;2023-05-29T08:30:20;21.80;1.00
3778;DHT22;1904;50.076;8.660;2023-05-29T08:32:47;22.00;1.00
3778;DHT22;1904;50.076;8.660;2023-05-29T08:35:20;22.00;1.00
3778;DHT22;1904;50.076;8.660;2023-05-29T08:37:46;22.10;1.00
3778;DHT22;1904;50.076;8.660;2023-05-29T08:40:14;22.30;1.00
3778;DHT22;1904;50.076;8.660;2023-05-29T08:42:58;22.30;1.00
3778;DHT22;1904;50.076;8.660;2023-05-29T08:45:28;22.50;1.00
3778;DHT22;1904;50.076;8.660;2023-05-29T08:48:02;22.50;1.00
3778;DHT22;1904;50.076;8.660;2023-05-29T08:50:44;22.50;1.00
3778;DHT22;1904;50.076;8.660;2023-05-29T08:53:14;22.60;1.00
3778;DHT22;1904;50.076;8.660;2023-05-29T08:55:51;22.70;1.00
3778;DHT22;1904;50.076;8.660;2023-05-29T08:58:44;22.80;1.00
3778;DHT22;1904;50.076;8.660;2023-05-29T09:01:21;22.80;1.00
3778;DHT22;1904;50.076;8.660;2023-05-29T09:03:47;23.00;1.00
3778;DHT22;1904;50.076;8.660;2023-05-29T09:06:13;23.10;1.00
3778;DHT22;1904;50.076;8.660;2023-05-29T09:08:39;23.10;1.00
3778;DHT22;1904;50.076;8.660;2023-05-29T09:11:05;23.20;1.00
3778;DHT22;1904;50.076;8.660;2023-05-29T09:13:31;23.40;1.00
3778;DHT22;1904;50.076;8.660;2023-05-29T09:16:01;23.40;1.00
3778;DHT22;1904;50.076;8.660;2023-05-29T09:18:31;23.60;1.00
3778;DHT22;1904;50.076;8.660;2023-05-29T09:20:57;23.70;1.00
3778;DHT22;1904;50.076;8.660;2023-05-29T09:23:31;23.80;1.00
3778;DHT22;1904;50.076;8.660;2023-05-29T09:26:03;25.40;1.00
3778;DHT22;1904;50.076;8.660;2023-05-29T09:28:30;24.00;1.00
3778;DHT22;1904;50.076;8.660;2023-05-29T09:31:13;24.10;1.00
3778;DHT22;1904;50.076;8.660;2023-05-29T09:33:50;24.20;1.00
3778;DHT22;1904;50.076;8.660;2023-05-29T09:36:23;24.20;1.00
3778;DHT22;1904;50.076;8.660;2023-05-29T09:39:08;24.40;1.00
3778;DHT22;1904;50.076;8.660;2023-05-29T09:41:42;24.40;1.00
3778;DHT22;1904;50.076;8.660;2023-05-29T09:44:15;24.40;1.00
3778;DHT22;1904;50.076;8.660;2023-05-29T09:46:41;24.50;1.00
3778;DHT22;1904;50.076;8.660;2023-05-29T09:49:14;24.60;1.00
3778;DHT22;1904;50.076;8.660;2023-05-29T09:51:46;24.80;1.00
3778;DHT22;1904;50.076;8.660;2023-05-29T09:54:17;24.90;1.00
3778;DHT22;1904;50.076;8.660;2023-05-29T09:57:02;24.90;1.00
3778;DHT22;1904;50.076;8.660;2023-05-29T09:59:29;25.00;1.00
3778;DHT22;1904;50.076;8.660;2023-05-29T10:02:04;25.10;1.00
3778;DHT22;1904;50.076;8.660;2023-05-29T10:04:33;25.10;1.00
3778;DHT22;1904;50.076;8.660;2023-05-29T10:07:05;25.10;1.00
3778;DHT22;1904;50.076;8.660;2023-05-29T10:09:33;25.20;1.00
3778;DHT22;1904;50.076;8.660;2023-05-29T10:12:01;25.30;1.00
3778;DHT22;1904;50.076;8.660;2023-05-29T10:14:29;25.50;1.00
3778;DHT22;1904;50.076;8.660;2023-05-29T10:16:58;25.40;1.00
3778;DHT22;1904;50.076;8.660;2023-05-29T10:19:29;25.60;1.00
3778;DHT22;1904;50.076;8.660;2023-05-29T10:21:55;25.60;1.00
3778;DHT22;1904;50.076;8.660;2023-05-29T10:24:22;25.60;1.00
3778;DHT22;1904;50.076;8.660;2023-05-29T10:26:50;25.70;1.00
3778;DHT22;1904;50.076;8.660;2023-05-29T10:29:36;25.80;1.00
3778;DHT22;1904;50.076;8.660;2023-05-29T10:32:27;25.60;1.00
3778;DHT22;1904;50.076;8.660;2023-05-29T10:37:44;25.80;1.00
3778;DHT22;1904;50.076;8.660;2023-05-29T10:40:32;25.80;1.00
3778;DHT22;1904;50.076;8.660;2023-05-29T10:42:58;26.10;1.00
3778;DHT22;1904;50.076;8.660;2023-05-29T10:53:44;26.30;1.00
3778;DHT22;1904;50.076;8.660;2023-05-29T10:56:31;26.30;1.00
3778;DHT22;1904;50.076;8.660;2023-05-29T10:59:02;26.50;1.00
3778;DHT22;1904;50.076;8.660;2023-05-29T11:01:30;26.50;1.00
3778;DHT22;1904;50.076;8.660;2023-05-29T11:06:51;26.70;1.00
3778;DHT22;1904;50.076;8.660;2023-05-29T11:09:39;26.70;1.00
3778;DHT22;1904;50.076;8.660;2023-05-29T11:12:23;26.80;1.00
3778;DHT22;1904;50.076;8.660;2023-05-29T11:21:56;26.90;1.00
3778;DHT22;1904;50.076;8.660;2023-05-29T11:24:33;26.80;1.00
3778;DHT22;1904;50.076;8.660;2023-05-29T11:27:38;26.90;1.00
3778;DHT22;1904;50.076;8.660;2023-05-29T11:30:15;27.00;1.00
3778;DHT22;1904;50.076;8.660;2023-05-29T11:36:06;27.10;1.00
3778;DHT22;1904;50.076;8.660;2023-05-29T11:38:32;27.20;1.00
3778;DHT22;1904;50.076;8.660;2023-05-29T11:40:58;27.40;1.00
3778;DHT22;1904;50.076;8.660;2023-05-29T11:43:26;27.50;1.00
3778;DHT22;1904;50.076;8.660;2023-05-29T11:45:52;27.70;1.00
3778;DHT22;1904;50.076;8.660;2023-05-29T11:48:18;27.70;1.00
3778;DHT22;1904;50.076;8.660;2023-05-29T11:50:43;27.70;1.00
3778;DHT22;1904;50.076;8.660;2023-05-29T11:53:09;27.80;1.00
3778;DHT22;1904;50.076;8.660;2023-05-29T11:55:36;27.90;1.00
3778;DHT22;1904;50.076;8.660;2023-05-29T11:58:04;27.80;1.00
3778;DHT22;1904;50.076;8.660;2023-05-29T12:00:33;27.80;1.00
3778;DHT22;1904;50.076;8.660;2023-05-29T12:02:59;27.90;1.00
3778;DHT22;1904;50.076;8.660;2023-05-29T12:05:30;28.00;1.00
3778;DHT22;1904;50.076;8.660;2023-05-29T12:07:56;28.10;1.00
3778;DHT22;1904;50.076;8.660;2023-05-29T12:10:33;27.90;1.00
3778;DHT22;1904;50.076;8.660;2023-05-29T12:13:15;27.90;1.00
3778;DHT22;1904;50.076;8.660;2023-05-29T12:16:03;28.10;1.00
3778;DHT22;1904;50.076;8.660;2023-05-29T12:21:51;28.40;1.00
3778;DHT22;1904;50.076;8.660;2023-05-29T12:24:19;28.50;1.00
3778;DHT22;1904;50.076;8.660;2023-05-29T12:26:45;28.50;1.00
3778;DHT22;1904;50.076;8.660;2023-05-29T12:29:13;28.50;1.00
3778;DHT22;1904;50.076;8.660;2023-05-29T12:31:38;28.50;1.00
3778;DHT22;1904;50.076;8.660;2023-05-29T12:34:15;28.50;1.00
3778;DHT22;1904;50.076;8.660;2023-05-29T12:36:44;28.50;1.00
3778;DHT22;1904;50.076;8.660;2023-05-29T12:39:14;28.50;1.00
3778;DHT22;1904;50.076;8.660;2023-05-29T12:41:40;28.70;1.00
3778;DHT22;1904;50.076;8.660;2023-05-29T12:44:07;28.70;1.00
3778;DHT22;1904;50.076;8.660;2023-05-29T12:46:38;28.80;1.00
3778;DHT22;1904;50.076;8.660;2023-05-29T12:49:17;28.90;1.00
3778;DHT22;1904;50.076;8.660;2023-05-29T12:51:47;29.00;1.00
3778;DHT22;1904;50.076;8.660;2023-05-29T12:54:14;29.20;1.00
3778;DHT22;1904;50.076;8.660;2023-05-29T12:56:40;29.20;1.00
3778;DHT22;1904;50.076;8.660;2023-05-29T12:59:08;29.40;1.00
3778;DHT22;1904;50.076;8.660;2023-05-29T13:01:37;29.40;1.00
3778;DHT22;1904;50.076;8.660;2023-05-29T13:04:09;29.50;1.00
3778;DHT22;1904;50.076;8.660;2023-05-29T13:06:36;29.60;1.00
3778;DHT22;1904;50.076;8.660;2023-05-29T13:09:03;29.80;1.00
3778;DHT22;1904;50.076;8.660;2023-05-29T13:11:28;29.80;1.00
3778;DHT22;1904;50.076;8.660;2023-05-29T13:13:54;29.80;1.00
3778;DHT22;1904;50.076;8.660;2023-05-29T13:16:21;30.00;1.00
3778;DHT22;1904;50.076;8.660;2023-05-29T13:18:50;30.10;1.00
3778;DHT22;1904;50.076;8.660;2023-05-29T13:21:21;30.20;1.00
3778;DHT22;1904;50.076;8.660;2023-05-29T13:23:51;30.20;1.00
3778;DHT22;1904;50.076;8.660;2023-05-29T13:26:44;30.40;1.00
3778;DHT22;1904;50.076;8.660;2023-05-29T13:29:10;30.30;1.00
3778;DHT22;1904;50.076;8.660;2023-05-29T13:31:50;30.20;1.00
3778;DHT22;1904;50.076;8.660;2023-05-29T13:34:27;30.20;1.00
3778;DHT22;1904;50.076;8.660;2023-05-29T13:37:09;30.20;1.00
3778;DHT22;1904;50.076;8.660;2023-05-29T13:42:41;30.10;1.00
3778;DHT22;1904;50.076;8.660;2023-05-29T13:45:07;29.90;1.00
3778;DHT22;1904;50.076;8.660;2023-05-29T13:47:34;29.90;1.00
3778;DHT22;1904;50.076;8.660;2023-05-29T13:49:59;30.00;1.00
3778;DHT22;1904;50.076;8.660;2023-05-29T13:52:26;30.20;1.00
3778;DHT22;1904;50.076;8.660;2023-05-29T13:54:52;30.20;1.00
3778;DHT22;1904;50.076;8.660;2023-05-29T13:57:18;30.40;1.00
3778;DHT22;1904;50.076;8.660;2023-05-29T13:59:44;30.50;1.00
3778;DHT22;1904;50.076;8.660;2023-05-29T14:02:27;30.60;1.00
3778;DHT22;1904;50.076;8.660;2023-05-29T14:08:14;30.70;1.00
3778;DHT22;1904;50.076;8.660;2023-05-29T14:11:02;30.70;1.00
3778;DHT22;1904;50.076;8.660;2023-05-29T14:13:29;30.80;1.00
3778;DHT22;1904;50.076;8.660;2023-05-29T14:15:54;30.60;1.00
3778;DHT22;1904;50.076;8.660;2023-05-29T14:18:27;30.70;1.00
3778;DHT22;1904;50.076;8.660;2023-05-29T14:20:52;30.80;1.00
3778;DHT22;1904;50.076;8.660;2023-05-29T14:23:38;30.90;1.00
3778;DHT22;1904;50.076;8.660;2023-05-29T14:26:21;31.00;1.00
3778;DHT22;1904;50.076;8.660;2023-05-29T14:28:51;31.00;1.00
3778;DHT22;1904;50.076;8.660;2023-05-29T14:31:16;31.00;1.00
3778;DHT22;1904;50.076;8.660;2023-05-29T14:33:45;31.00;1.00
3778;DHT22;1904;50.076;8.660;2023-05-29T14:36:10;30.90;1.00
3778;DHT22;1904;50.076;8.660;2023-05-29T14:38:36;30.70;1.00
3778;DHT22;1904;50.076;8.660;2023-05-29T14:41:02;30.70;1.00
3778;DHT22;1904;50.076;8.660;2023-05-29T14:43:28;30.80;1.00
3778;DHT22;1904;50.076;8.660;2023-05-29T14:45:54;31.10;1.00
3778;DHT22;1904;50.076;8.660;2023-05-29T14:48:19;31.00;1.00
3778;DHT22;1904;50.076;8.660;2023-05-29T14:50:45;30.80;1.00
3778;DHT22;1904;50.076;8.660;2023-05-29T14:53:11;30.80;1.00
3778;DHT22;1904;50.076;8.660;2023-05-29T14:55:36;30.80;1.00
3778;DHT22;1904;50.076;8.660;2023-05-29T14:58:32;30.80;1.00
3778;DHT22;1904;50.076;8.660;2023-05-29T15:00:58;30.90;1.00
3778;DHT22;1904;50.076;8.660;2023-05-29T15:03:39;30.90;1.00
3778;DHT22;1904;50.076;8.660;2023-05-29T15:06:15;30.90;1.00
3778;DHT22;1904;50.076;8.660;2023-05-29T15:11:52;32.10;1.00
3778;DHT22;1904;50.076;8.660;2023-05-29T15:18:03;34.90;1.00
3778;DHT22;1904;50.076;8.660;2023-05-29T15:20:39;36.00;1.00
3778;DHT22;1904;50.076;8.660;2023-05-29T15:23:38;36.60;1.00
3778;DHT22;1904;50.076;8.660;2023-05-29T15:26:15;37.10;1.00
3778;DHT22;1904;50.076;8.660;2023-05-29T15:28:40;38.10;1.00
3778;DHT22;1904;50.076;8.660;2023-05-29T15:34:39;39.60;1.00
3778;DHT22;1904;50.076;8.660;2023-05-29T15:37:09;40.40;1.00
3778;DHT22;1904;50.076;8.660;2023-05-29T15:42:56;41.60;1.00
3778;DHT22;1904;50.076;8.660;2023-05-29T15:52:06;42.80;1.00
3778;DHT22;1904;50.076;8.660;2023-05-29T16:01:21;43.40;1.00
3778;DHT22;1904;50.076;8.660;2023-05-29T16:03:51;44.00;1.00
3778;DHT22;1904;50.076;8.660;2023-05-29T16:06:21;44.20;1.00
3778;DHT22;1904;50.076;8.660;2023-05-29T16:08:57;44.00;1.00
3778;DHT22;1904;50.076;8.660;2023-05-29T16:11:27;43.40;1.00
3778;DHT22;1904;50.076;8.660;2023-05-29T16:14:09;42.70;1.00
3778;DHT22;1904;50.076;8.660;2023-05-29T16:16:35;42.20;1.00
3778;DHT22;1904;50.076;8.660;2023-05-29T16:19:03;41.50;1.00
3778;DHT22;1904;50.076;8.660;2023-05-29T16:25:15;40.90;1.00
3778;DHT22;1904;50.076;8.660;2023-05-29T16:30:57;40.90;1.00
3778;DHT22;1904;50.076;8.660;2023-05-29T16:33:45;40.00;1.00
3778;DHT22;1904;50.076;8.660;2023-05-29T16:36:21;39.00;1.00
3778;DHT22;1904;50.076;8.660;2023-05-29T16:42:33;37.90;1.00
3778;DHT22;1904;50.076;8.660;2023-05-29T16:45:20;37.60;1.00
3778;DHT22;1904;50.076;8.660;2023-05-29T16:48:15;36.20;1.00
3778;DHT22;1904;50.076;8.660;2023-05-29T16:50:51;35.40;1.00
3778;DHT22;1904;50.076;8.660;2023-05-29T16:53:21;35.30;1.00
3778;DHT22;1904;50.076;8.660;2023-05-29T16:55:57;35.40;1.00
3778;DHT22;1904;50.076;8.660;2023-05-29T16:58:27;35.50;1.00
3778;DHT22;1904;50.076;8.660;2023-05-29T17:07:36;36.10;1.00
3778;DHT22;1904;50.076;8.660;2023-05-29T17:10:02;36.40;1.00
3778;DHT22;1904;50.076;8.660;2023-05-29T17:15:57;36.90;1.00
3778;DHT22;1904;50.076;8.660;2023-05-29T17:27:56;39.00;1.00
3778;DHT22;1904;50.076;8.660;2023-05-29T17:30:51;39.00;1.00
3778;DHT22;1904;50.076;8.660;2023-05-29T17:33:16;38.60;1.00
3778;DHT22;1904;50.076;8.660;2023-05-29T17:35:42;37.90;1.00
3778;DHT22;1904;50.076;8.660;2023-05-29T17:38:09;37.30;1.00
3778;DHT22;1904;50.076;8.660;2023-05-29T17:41:03;35.90;1.00
3778;DHT22;1904;50.076;8.660;2023-05-29T17:53:57;29.90;1.00
3778;DHT22;1904;50.076;8.660;2023-05-29T17:59:54;27.90;1.00
3778;DHT22;1904;50.076;8.660;2023-05-29T18:06:09;26.70;1.00
3778;DHT22;1904;50.076;8.660;2023-05-29T18:08:34;26.20;1.00
3778;DHT22;1904;50.076;8.660;2023-05-29T18:11:09;25.80;1.00
3778;DHT22;1904;50.076;8.660;2023-05-29T18:46:55;22.80;1.00
3778;DHT22;1904;50.076;8.660;2023-05-29T18:49:27;22.50;1.00
3778;DHT22;1904;50.076;8.660;2023-05-29T18:52:09;22.30;1.00
3778;DHT22;1904;50.076;8.660;2023-05-29T18:54:45;22.20;1.00
3778;DHT22;1904;50.076;8.660;2023-05-29T18:57:27;22.10;1.00
3778;DHT22;1904;50.076;8.660;2023-05-29T19:06:45;21.60;1.00
3778;DHT22;1904;50.076;8.660;2023-05-29T19:09:21;21.60;1.00
3778;DHT22;1904;50.076;8.660;2023-05-29T19:12:21;21.50;1.00
3778;DHT22;1904;50.076;8.660;2023-05-29T19:14:57;21.30;1.00
3778;DHT22;1904;50.076;8.660;2023-05-29T19:31:03;20.70;1.00
3778;DHT22;1904;50.076;8.660;2023-05-29T19:34:03;20.50;1.00
3778;DHT22;1904;50.076;8.660;2023-05-29T19:39:57;20.30;1.00
3778;DHT22;1904;50.076;8.660;2023-05-29T19:42:39;20.20;1.00
3778;DHT22;1904;50.076;8.660;2023-05-29T19:45:05;20.10;1.00
3778;DHT22;1904;50.076;8.660;2023-05-29T19:47:33;20.10;1.00
3778;DHT22;1904;50.076;8.660;2023-05-29T19:49:59;20.00;1.00
3778;DHT22;1904;50.076;8.660;2023-05-29T19:52:40;19.90;1.00
3778;DHT22;1904;50.076;8.660;2023-05-29T19:55:15;19.90;1.00
3778;DHT22;1904;50.076;8.660;2023-05-29T19:57:57;19.80;1.00
3778;DHT22;1904;50.076;8.660;2023-05-29T20:00:23;19.70;1.00
3778;DHT22;1904;50.076;8.660;2023-05-29T20:02:51;19.70;1.00
3778;DHT22;1904;50.076;8.660;2023-05-29T20:05:17;19.60;1.00
3778;DHT22;1904;50.076;8.660;2023-05-29T20:07:45;19.60;1.00
3778;DHT22;1904;50.076;8.660;2023-05-29T20:10:10;19.50;1.00
3778;DHT22;1904;50.076;8.660;2023-05-29T20:12:39;19.50;1.00
3778;DHT22;1904;50.076;8.660;2023-05-29T20:15:09;19.50;1.00
3778;DHT22;1904;50.076;8.660;2023-05-29T20:17:39;19.40;1.00
3778;DHT22;1904;50.076;8.660;2023-05-29T20:20:05;19.30;1.00
3778;DHT22;1904;50.076;8.660;2023-05-29T20:22:32;19.20;1.00
3778;DHT22;1904;50.076;8.660;2023-05-29T20:25:03;19.20;1.00
3778;DHT22;1904;50.076;8.660;2023-05-29T20:27:29;19.10;1.00
3778;DHT22;1904;50.076;8.660;2023-05-29T20:29:55;19.20;1.00
3778;DHT22;1904;50.076;8.660;2023-05-29T20:32:22;19.10;1.00
3778;DHT22;1904;50.076;8.660;2023-05-29T20:34:51;19.10;1.00
3778;DHT22;1904;50.076;8.660;2023-05-29T20:37:17;19.00;1.00
3778;DHT22;1904;50.076;8.660;2023-05-29T20:39:42;18.90;1.00
3778;DHT22;1904;50.076;8.660;2023-05-29T20:42:15;18.90;1.00
3778;DHT22;1904;50.076;8.660;2023-05-29T20:44:45;18.80;1.00
3778;DHT22;1904;50.076;8.660;2023-05-29T20:47:15;18.80;1.00
3778;DHT22;1904;50.076;8.660;2023-05-29T20:49:51;18.70;1.00
3778;DHT22;1904;50.076;8.660;2023-05-29T20:52:21;18.70;1.00
3778;DHT22;1904;50.076;8.660;2023-05-29T20:54:51;18.70;1.00
3778;DHT22;1904;50.076;8.660;2023-05-29T20:57:17;18.70;1.00
3778;DHT22;1904;50.076;8.660;2023-05-29T20:59:45;18.70;1.00
3778;DHT22;1904;50.076;8.660;2023-05-29T21:02:45;18.60;1.00
3778;DHT22;1904;50.076;8.660;2023-05-29T21:08:21;18.50;1.00
3778;DHT22;1904;50.076;8.660;2023-05-29T21:17:39;18.40;1.00
3778;DHT22;1904;50.076;8.660;2023-05-29T21:20:09;18.30;1.00
3778;DHT22;1904;50.076;8.660;2023-05-29T21:25:51;18.20;1.00
3778;DHT22;1904;50.076;8.660;2023-05-29T21:28:21;18.10;1.00
3778;DHT22;1904;50.076;8.660;2023-05-29T21:34:07;18.00;1.00
3778;DHT22;1904;50.076;8.660;2023-05-29T21:36:33;18.00;1.00
3778;DHT22;1904;50.076;8.660;2023-05-29T21:39:03;17.90;1.00
3778;DHT22;1904;50.076;8.660;2023-05-29T21:41:33;17.90;1.00
3778;DHT22;1904;50.076;8.660;2023-05-29T21:43:59;17.80;1.00
3778;DHT22;1904;50.076;8.660;2023-05-29T21:46:25;17.70;1.00
3778;DHT22;1904;50.076;8.660;2023-05-29T21:48:51;17.80;1.00
3778;DHT22;1904;50.076;8.660;2023-05-29T21:51:16;17.70;1.00
3778;DHT22;1904;50.076;8.660;2023-05-29T21:53:42;17.70;1.00
3778;DHT22;1904;50.076;8.660;2023-05-29T21:56:08;17.60;1.00
3778;DHT22;1904;50.076;8.660;2023-05-29T21:58:45;17.70;1.00
3778;DHT22;1904;50.076;8.660;2023-05-29T22:01:15;17.60;1.00